createdAt,value
2022-11-10T00:02:30.179Z,100464.94
2022-11-10T00:05:51.388Z,100465.03
2022-11-10T00:09:12.509Z,100473.63
2022-11-10T00:12:33.845Z,100478.91
2022-11-10T00:16:13.901Z,100493.94
2022-11-10T00:19:34.787Z,100489.13
2022-11-10T00:22:56.668Z,100499.63
2022-11-10T00:26:19.639Z,100502.81
2022-11-10T00:29:41.653Z,100492.53
2022-11-10T00:33:02.385Z,100494.59
2022-11-10T00:36:23.800Z,100496.53
2022-11-10T00:39:44.717Z,100492.84
2022-11-10T00:43:05.414Z,100496.69
2022-11-10T00:46:26.556Z,100492.16
2022-11-10T00:49:47.393Z,100497.78
2022-11-10T00:53:08.381Z,100504.09
2022-11-10T00:56:29.332Z,100494.59
2022-11-10T00:59:50.301Z,100496.69
2022-11-10T01:03:16.177Z,100497.13
2022-11-10T01:06:37.172Z,100498.81
2022-11-10T01:09:58.193Z,100506.09
2022-11-10T01:13:19.412Z,100502.47
2022-11-10T01:16:40.420Z,100495.69
2022-11-10T01:20:01.431Z,100494.75
2022-11-10T01:23:22.448Z,100490.59
2022-11-10T01:26:44.032Z,100495.06
2022-11-10T01:30:05.672Z,100497.66
2022-11-10T01:33:26.803Z,100492.69
2022-11-10T01:36:48.298Z,100487.94
2022-11-10T01:40:10.107Z,100496.31
2022-11-10T01:43:31.280Z,100487.13
2022-11-10T01:46:52.383Z,100486.59
2022-11-10T01:50:13.524Z,100482.28
2022-11-10T01:53:37.029Z,100480.88
2022-11-10T01:57:05.232Z,100480.00
2022-11-10T02:00:26.409Z,100491.06
2022-11-10T02:03:51.080Z,100499.19
2022-11-10T02:07:12.134Z,100499.06
2022-11-10T02:10:32.784Z,100499.63
2022-11-10T02:13:54.138Z,100508.16
2022-11-10T02:17:15.191Z,100505.72
2022-11-10T02:20:36.034Z,100504.09
2022-11-10T02:23:56.963Z,100521.94
2022-11-10T02:27:18.035Z,100514.47
2022-11-10T02:30:38.851Z,100511.81
2022-11-10T02:33:59.977Z,100513.22
2022-11-10T02:37:21.041Z,100510.03
2022-11-10T02:40:42.091Z,100519.22
2022-11-10T02:44:03.541Z,100523.38
2022-11-10T02:47:24.137Z,100530.31
2022-11-10T02:50:45.444Z,100523.47
2022-11-10T02:54:06.495Z,100539.09
2022-11-10T02:57:27.082Z,100532.50
2022-11-10T03:00:48.307Z,100533.56
2022-11-10T03:04:09.291Z,100535.59
2022-11-10T03:07:30.244Z,100550.16
2022-11-10T03:10:54.281Z,100563.16
2022-11-10T03:14:14.893Z,100548.47
2022-11-10T03:17:36.059Z,100553.44
2022-11-10T03:20:56.866Z,100552.72
2022-11-10T03:24:17.861Z,100563.41
2022-11-10T03:27:38.870Z,100549.19
2022-11-10T03:31:00.131Z,100562.84
2022-11-10T03:34:21.296Z,100571.41
2022-11-10T03:37:42.486Z,100563.00
2022-11-10T03:41:18.613Z,100566.84
2022-11-10T03:44:40.564Z,100566.66
2022-11-10T03:48:01.640Z,100560.44
2022-11-10T03:51:23.014Z,100561.47
2022-11-10T03:54:43.832Z,100573.91
2022-11-10T03:58:04.961Z,100573.72
2022-11-10T04:01:25.740Z,100581.91
2022-11-10T04:05:05.211Z,100582.38
2022-11-10T04:08:44.317Z,100588.91
2022-11-10T04:12:25.140Z,100590.59
2022-11-10T04:15:46.003Z,100593.47
2022-11-10T04:19:07.110Z,100592.31
2022-11-10T04:22:46.735Z,100591.06
2022-11-10T04:26:28.160Z,100609.41
2022-11-10T04:29:48.781Z,100598.97
2022-11-10T04:33:09.822Z,100600.25
2022-11-10T04:36:32.430Z,100599.50
2022-11-10T04:39:53.172Z,100596.22
2022-11-10T04:43:14.179Z,100609.66
2022-11-10T04:46:37.909Z,100608.00
2022-11-10T04:49:58.856Z,100612.09
2022-11-10T04:53:20.329Z,100610.81
2022-11-10T04:56:41.788Z,100609.84
2022-11-10T05:00:02.725Z,100615.81
2022-11-10T05:03:24.063Z,100615.38
2022-11-10T05:06:44.852Z,100612.50
2022-11-10T05:10:06.165Z,100642.47
2022-11-10T05:13:27.353Z,100639.81
2022-11-10T05:16:48.143Z,100656.22
2022-11-10T05:20:10.087Z,100641.72
2022-11-10T05:23:40.377Z,100649.47
2022-11-10T05:27:01.226Z,100646.47
2022-11-10T05:30:22.085Z,100638.16
2022-11-10T05:33:43.226Z,100654.38
2022-11-10T05:37:04.408Z,100659.50
2022-11-10T05:40:26.094Z,100658.50
2022-11-10T05:43:47.539Z,100672.41
2022-11-10T05:47:09.001Z,100678.88
2022-11-10T05:50:29.868Z,100679.94
2022-11-10T05:53:50.931Z,100686.25
2022-11-10T05:57:12.016Z,100691.97
2022-11-10T06:00:33.549Z,100695.94
2022-11-10T06:03:54.450Z,100699.88
2022-11-10T06:07:15.484Z,100714.72
2022-11-10T06:10:37.026Z,100713.47
2022-11-10T06:13:57.793Z,100715.53
2022-11-10T06:17:19.069Z,100724.94
2022-11-10T06:20:39.837Z,100728.97
2022-11-10T06:24:00.711Z,100731.34
2022-11-10T06:27:21.696Z,100732.81
2022-11-10T06:30:43.031Z,100741.63
2022-11-10T06:34:03.744Z,100749.00
2022-11-10T06:37:24.639Z,100752.84
2022-11-10T06:40:45.672Z,100743.66
2022-11-10T06:44:06.882Z,100763.97
2022-11-10T06:47:27.665Z,100763.78
2022-11-10T06:50:48.726Z,100764.59
2022-11-10T06:54:09.972Z,100766.81
2022-11-10T06:57:37.690Z,100777.72
2022-11-10T07:01:01.900Z,100777.00
2022-11-10T07:04:22.674Z,100777.00
2022-11-10T07:07:43.626Z,100793.44
2022-11-10T07:11:04.941Z,100787.94
2022-11-10T07:14:25.718Z,100800.91
2022-11-10T07:17:46.548Z,100807.75
2022-11-10T07:21:07.459Z,100804.47
2022-11-10T07:24:30.563Z,100803.56
2022-11-10T07:27:56.094Z,100811.66
2022-11-10T07:31:17.035Z,100811.66
2022-11-10T07:34:38.114Z,100811.88
2022-11-10T07:38:03.108Z,100821.47
2022-11-10T07:41:23.753Z,100817.78
2022-11-10T07:44:44.850Z,100828.91
2022-11-10T07:48:07.200Z,100835.00
2022-11-10T07:51:28.054Z,100825.25
2022-11-10T07:54:48.909Z,100842.91
2022-11-10T07:58:11.403Z,100855.22
2022-11-10T08:01:34.125Z,100848.09
2022-11-10T08:04:55.217Z,100847.69
2022-11-10T08:08:16.451Z,100857.13
2022-11-10T08:11:37.208Z,100854.91
2022-11-10T08:14:58.302Z,100863.41
2022-11-10T08:18:23.689Z,100877.25
2022-11-10T08:21:44.640Z,100874.38
2022-11-10T08:25:06.103Z,100885.00
2022-11-10T08:28:27.780Z,100893.97
2022-11-10T08:31:48.514Z,100883.69
2022-11-10T08:35:09.507Z,100898.84
2022-11-10T08:38:30.488Z,100894.94
2022-11-10T08:41:51.437Z,100899.09
2022-11-10T08:45:12.927Z,100910.88
2022-11-10T08:48:34.107Z,100912.16
2022-11-10T08:51:54.884Z,100915.22
2022-11-10T08:55:16.114Z,100919.22
2022-11-10T08:58:48.621Z,100915.22
2022-11-10T09:02:11.096Z,100935.31
2022-11-10T09:05:31.966Z,100942.00
2022-11-10T09:08:53.124Z,100942.22
2022-11-10T09:12:14.153Z,100945.34
2022-11-10T09:15:35.751Z,100962.41
2022-11-10T09:18:56.705Z,100958.34
2022-11-10T09:22:17.539Z,100946.81
2022-11-10T09:25:39.140Z,100954.59
2022-11-10T09:29:00.043Z,100950.28
2022-11-10T09:32:20.924Z,100956.22
2022-11-10T09:35:43.085Z,100968.72
2022-11-10T09:39:03.846Z,100954.59
2022-11-10T09:42:43.327Z,100952.81
2022-11-10T09:46:11.216Z,100959.19
2022-11-10T09:49:51.666Z,100956.28
2022-11-10T09:53:16.283Z,100966.31
2022-11-10T09:56:39.223Z,100969.34
2022-11-10T10:00:00.232Z,100981.63
2022-11-10T10:03:26.272Z,100982.59
2022-11-10T10:07:16.520Z,100983.78
2022-11-10T10:10:40.429Z,100984.81
2022-11-10T10:14:04.816Z,100983.78
2022-11-10T10:17:39.796Z,100984.31
2022-11-10T10:21:02.184Z,100997.91
2022-11-10T10:24:23.920Z,100999.03
2022-11-10T10:27:45.730Z,101012.03
2022-11-10T10:31:25.019Z,101005.69
2022-11-10T10:34:46.837Z,101008.50
2022-11-10T10:38:21.181Z,100998.84
2022-11-10T10:41:45.072Z,100995.38
2022-11-10T10:45:24.588Z,101005.69
2022-11-10T10:48:50.542Z,101000.88
2022-11-10T10:52:16.883Z,101011.88
2022-11-10T10:55:38.071Z,101008.50
2022-11-10T10:59:02.375Z,101011.28
2022-11-10T11:02:29.151Z,101008.50
2022-11-10T11:06:27.716Z,101004.56
2022-11-10T11:09:48.524Z,100996.19
2022-11-10T11:13:25.258Z,101003.06
2022-11-10T11:16:52.231Z,100995.59
2022-11-10T11:20:15.949Z,100992.00
2022-11-10T11:24:10.930Z,101011.97
2022-11-10T11:27:53.835Z,101027.59
2022-11-10T11:31:42.861Z,101027.97
2022-11-10T11:35:19.096Z,101020.91
2022-11-10T11:39:05.593Z,101032.97
2022-11-10T11:42:42.892Z,101023.69
2022-11-10T11:46:11.598Z,101032.22
2022-11-10T11:49:40.261Z,101027.56
2022-11-10T11:53:39.421Z,101035.88
2022-11-10T11:57:18.916Z,101047.41
2022-11-10T12:01:03.310Z,101046.69
2022-11-10T12:04:42.293Z,101044.47
2022-11-10T12:08:35.455Z,101033.44
2022-11-10T12:12:14.520Z,101045.06
2022-11-10T12:15:44.799Z,101046.34
2022-11-10T12:19:33.179Z,101047.00
2022-11-10T12:23:10.991Z,101044.25
2022-11-10T12:26:40.964Z,101042.91
2022-11-10T12:30:05.254Z,101052.44
2022-11-10T12:33:40.252Z,101055.41
2022-11-10T12:37:05.074Z,101064.16
2022-11-10T12:40:31.583Z,101068.66
2022-11-10T12:44:03.404Z,101074.94
2022-11-10T12:47:28.792Z,101071.06
2022-11-10T12:50:52.347Z,101073.66
2022-11-10T12:54:16.916Z,101067.41
2022-11-10T12:57:41.803Z,101076.00
2022-11-10T13:01:05.777Z,101088.38
2022-11-10T13:04:26.565Z,101083.16
2022-11-10T13:07:48.971Z,101097.22
2022-11-10T13:11:12.928Z,101091.72
2022-11-10T13:14:34.481Z,101085.75
2022-11-10T13:17:55.547Z,101087.94
2022-11-10T13:21:17.129Z,101089.50
2022-11-10T13:24:38.957Z,101102.75
2022-11-10T13:27:59.759Z,101105.19
2022-11-10T13:31:40.095Z,101102.66
2022-11-10T13:35:28.661Z,101105.66
2022-11-10T13:38:49.649Z,101096.03
2022-11-10T13:42:10.909Z,101104.94
2022-11-10T13:45:35.152Z,101103.78
2022-11-10T13:48:58.910Z,101108.94
2022-11-10T13:52:38.655Z,101120.47
2022-11-10T13:56:14.740Z,101124.28
2022-11-10T13:59:47.084Z,101109.88
2022-11-10T14:03:08.278Z,101116.88
2022-11-10T14:06:43.966Z,101126.13
2022-11-10T14:10:11.228Z,101117.53
2022-11-10T14:13:50.028Z,101136.09
2022-11-10T14:17:24.287Z,101140.78
2022-11-10T14:20:47.014Z,101139.94
2022-11-10T14:24:21.303Z,101133.31
2022-11-10T14:27:44.519Z,101137.69
2022-11-10T14:31:05.967Z,101145.09
2022-11-10T14:34:27.061Z,101140.75
2022-11-10T14:37:49.507Z,101144.88
2022-11-10T14:41:16.653Z,101165.28
2022-11-10T14:44:37.719Z,101161.44
2022-11-10T14:48:00.360Z,101165.91
2022-11-10T14:51:21.248Z,101167.53
2022-11-10T14:54:44.820Z,101175.75
2022-11-10T14:58:12.570Z,101172.09
2022-11-10T15:01:55.198Z,101183.81
2022-11-10T15:05:16.667Z,101164.41
2022-11-10T15:08:38.043Z,101183.47
2022-11-10T15:12:22.504Z,101178.47
2022-11-10T15:15:43.974Z,101181.84
2022-11-10T15:19:24.709Z,101190.78
2022-11-10T15:22:49.315Z,101185.13
2022-11-10T15:26:23.926Z,101191.00
2022-11-10T15:29:45.604Z,101202.09
2022-11-10T15:33:10.650Z,101206.31
2022-11-10T15:36:34.631Z,101203.28
2022-11-10T15:40:41.010Z,101204.47
2022-11-10T15:44:25.332Z,101215.88
2022-11-10T15:47:46.317Z,101214.47
2022-11-10T15:51:11.252Z,101231.84
2022-11-10T15:54:35.385Z,101231.53
2022-11-10T15:57:56.588Z,101233.47
2022-11-10T16:01:18.504Z,101250.19
2022-11-10T16:04:39.200Z,101241.78
2022-11-10T16:08:00.429Z,101236.81
2022-11-10T16:11:22.189Z,101252.91
2022-11-10T16:14:48.030Z,101255.13
2022-11-10T16:18:15.134Z,101260.34
2022-11-10T16:21:35.818Z,101254.53
2022-11-10T16:24:56.854Z,101263.41
2022-11-10T16:28:22.401Z,101273.75
2022-11-10T16:31:43.569Z,101288.03
2022-11-10T16:35:05.049Z,101280.69
2022-11-10T16:38:28.197Z,101292.19
2022-11-10T16:41:48.918Z,101296.97
2022-11-10T16:45:20.303Z,101299.81
2022-11-10T16:48:44.300Z,101298.63
2022-11-10T16:52:14.607Z,101294.34
2022-11-10T16:55:35.423Z,101308.72
2022-11-10T16:58:56.380Z,101320.66
2022-11-10T17:02:33.682Z,101317.59
2022-11-10T17:05:54.744Z,101328.47
2022-11-10T17:09:21.694Z,101337.94
2022-11-10T17:12:42.277Z,101334.03
2022-11-10T17:16:06.021Z,101336.69
2022-11-10T17:19:27.077Z,101358.66
2022-11-10T17:22:49.718Z,101370.78
2022-11-10T17:26:12.287Z,101368.50
2022-11-10T17:29:33.158Z,101366.47
2022-11-10T17:33:04.659Z,101382.72
2022-11-10T17:36:26.272Z,101377.59
2022-11-10T17:39:47.294Z,101374.09
2022-11-10T17:43:15.117Z,101378.59
2022-11-10T17:46:35.927Z,101379.03
2022-11-10T17:49:56.939Z,101389.88
2022-11-10T17:53:26.326Z,101392.56
2022-11-10T17:56:47.597Z,101401.19
2022-11-10T18:00:09.415Z,101409.63
2022-11-10T18:03:30.158Z,101415.41
2022-11-10T18:06:50.879Z,101426.72
2022-11-10T18:10:14.028Z,101419.59
2022-11-10T18:13:34.997Z,101414.31
2022-11-10T18:16:55.926Z,101414.50
2022-11-10T18:20:17.017Z,101423.56
2022-11-10T18:23:37.924Z,101424.13
2022-11-10T18:26:58.813Z,101429.63
2022-11-10T18:30:22.280Z,101436.13
2022-11-10T18:33:45.789Z,101448.94
2022-11-10T18:37:07.303Z,101466.03
2022-11-10T18:40:29.045Z,101461.91
2022-11-10T18:43:50.028Z,101474.97
2022-11-10T18:47:12.589Z,101482.81
2022-11-10T18:50:33.750Z,101480.66
2022-11-10T18:53:54.780Z,101480.28
2022-11-10T18:57:16.742Z,101483.53
2022-11-10T19:00:37.708Z,101489.50
2022-11-10T19:03:58.953Z,101501.75
2022-11-10T19:07:19.844Z,101504.56
2022-11-10T19:10:43.948Z,101491.22
2022-11-10T19:14:05.441Z,101485.88
2022-11-10T19:17:26.120Z,101497.81
2022-11-10T19:20:47.074Z,101482.34
2022-11-10T19:24:08.293Z,101486.25
2022-11-10T19:27:29.032Z,101481.13
2022-11-10T19:30:50.009Z,101502.28
2022-11-10T19:34:11.383Z,101511.16
2022-11-10T19:37:35.026Z,101514.06
2022-11-10T19:40:55.876Z,101523.16
2022-11-10T19:44:16.786Z,101532.19
2022-11-10T19:47:37.907Z,101527.22
2022-11-10T19:51:00.198Z,101521.34
2022-11-10T19:54:21.413Z,101529.66
2022-11-10T19:57:42.656Z,101533.84
2022-11-10T20:01:04.548Z,101532.56
2022-11-10T20:04:26.402Z,101523.06
2022-11-10T20:08:09.722Z,101541.00
2022-11-10T20:11:30.630Z,101553.91
2022-11-10T20:14:51.466Z,101550.06
2022-11-10T20:18:12.478Z,101552.72
2022-11-10T20:21:33.139Z,101541.94
2022-11-10T20:24:54.056Z,101562.66
2022-11-10T20:28:14.905Z,101557.56
2022-11-10T20:31:37.098Z,101570.69
2022-11-10T20:34:57.822Z,101563.91
2022-11-10T20:38:19.054Z,101571.59
2022-11-10T20:41:39.898Z,101595.03
2022-11-10T20:45:00.895Z,101587.16
2022-11-10T20:48:21.874Z,101590.94
2022-11-10T20:51:43.555Z,101603.41
2022-11-10T20:55:05.601Z,101609.50
2022-11-10T20:58:26.775Z,101605.34
2022-11-10T21:01:47.746Z,101617.53
2022-11-10T21:05:09.220Z,101621.63
2022-11-10T21:08:30.855Z,101620.41
2022-11-10T21:12:10.638Z,101612.47
2022-11-10T21:15:31.317Z,101614.31
2022-11-10T21:18:55.403Z,101619.81
2022-11-10T21:22:16.066Z,101613.59
2022-11-10T21:25:37.064Z,101621.00
2022-11-10T21:28:58.555Z,101623.16
2022-11-10T21:32:19.476Z,101617.19
2022-11-10T21:35:41.145Z,101614.63
2022-11-10T21:39:02.398Z,101612.81
2022-11-10T21:42:23.511Z,101607.81
2022-11-10T21:45:44.377Z,101617.72
2022-11-10T21:49:07.904Z,101624.16
2022-11-10T21:52:35.268Z,101624.28
2022-11-10T21:56:00.081Z,101626.88
2022-11-10T21:59:21.167Z,101622.94
2022-11-10T22:02:42.301Z,101621.84
2022-11-10T22:06:08.542Z,101633.75
2022-11-10T22:09:48.251Z,101641.69
2022-11-10T22:13:37.722Z,101649.66
2022-11-10T22:17:18.106Z,101657.91
2022-11-10T22:20:39.287Z,101662.03
2022-11-10T22:24:18.956Z,101657.75
2022-11-10T22:27:39.951Z,101664.53
2022-11-10T22:31:05.007Z,101669.50
2022-11-10T22:34:26.071Z,101650.19
2022-11-10T22:37:46.891Z,101646.25
2022-11-10T22:41:31.289Z,101654.25
2022-11-10T22:44:51.957Z,101647.44
2022-11-10T22:48:28.546Z,101646.06
2022-11-10T22:51:56.732Z,101645.09
2022-11-10T22:55:17.812Z,101636.84
2022-11-10T22:58:39.046Z,101637.22
2022-11-10T23:02:00.995Z,101633.72
2022-11-10T23:05:21.971Z,101642.53
2022-11-10T23:08:43.976Z,101649.19
2022-11-10T23:12:05.255Z,101629.81
2022-11-10T23:15:26.278Z,101637.44
2022-11-10T23:18:49.714Z,101639.19
2022-11-10T23:22:10.659Z,101635.41
2022-11-10T23:25:31.675Z,101648.38
2022-11-10T23:28:53.264Z,101644.66
2022-11-10T23:32:14.332Z,101640.97
2022-11-10T23:35:35.393Z,101644.38
2022-11-10T23:38:56.406Z,101646.13
2022-11-10T23:42:17.324Z,101645.81
2022-11-10T23:46:05.463Z,101645.09
2022-11-10T23:49:21.282Z,101637.19
2022-11-10T23:52:42.102Z,101643.88
2022-11-10T23:56:06.187Z,101666.63
2022-11-10T23:59:26.800Z,101655.31
